createdAt,value
2018-11-02T00:00:01.801Z,0
2018-11-02T00:00:42.180Z,0
2018-11-02T00:01:22.746Z,0
2018-11-02T00:02:03.126Z,0
2018-11-02T00:02:43.432Z,0
2018-11-02T00:03:23.837Z,0
2018-11-02T00:04:04.466Z,0
2018-11-02T00:04:44.875Z,0
2018-11-02T00:05:25.236Z,0
2018-11-02T00:06:05.652Z,0
2018-11-02T00:06:46.104Z,0
2018-11-02T00:07:26.472Z,0
2018-11-02T00:08:06.938Z,0
2018-11-02T00:08:47.320Z,0
2018-11-02T00:09:27.742Z,0
2018-11-02T00:10:08.142Z,0
2018-11-02T00:10:48.458Z,0
2018-11-02T00:11:28.867Z,0
2018-11-02T00:12:09.264Z,0
2018-11-02T00:12:49.667Z,0
2018-11-02T00:13:30.435Z,0
2018-11-02T00:14:10.813Z,0
2018-11-02T00:14:51.175Z,0
2018-11-02T00:15:31.913Z,0
2018-11-02T00:16:12.066Z,0
2018-11-02T00:16:52.892Z,0
2018-11-02T00:17:33.347Z,0
2018-11-02T00:18:13.763Z,0
2018-11-02T00:18:54.204Z,0
2018-11-02T00:19:34.847Z,0
2018-11-02T00:20:15.447Z,0
2018-11-02T00:20:56.209Z,0
2018-11-02T00:21:36.962Z,0
2018-11-02T00:22:17.557Z,0
2018-11-02T00:22:57.834Z,0
2018-11-02T00:23:38.272Z,0
2018-11-02T00:24:18.914Z,0
2018-11-02T00:24:59.308Z,0
2018-11-02T00:25:40.015Z,0
2018-11-02T00:26:20.377Z,0
2018-11-02T00:27:00.851Z,0
2018-11-02T00:27:41.647Z,0
2018-11-02T00:28:21.748Z,0
2018-11-02T00:29:02.502Z,0
2018-11-02T00:29:43.483Z,0
2018-11-02T00:30:25.470Z,0
2018-11-02T00:31:05.793Z,0
2018-11-02T00:31:46.262Z,0
2018-11-02T00:32:26.903Z,0
2018-11-02T00:33:08.136Z,0
2018-11-02T00:33:48.690Z,0
2018-11-02T00:34:29.652Z,0
2018-11-02T00:35:10.206Z,0
2018-11-02T00:35:50.587Z,0
2018-11-02T00:36:30.955Z,0
2018-11-02T00:37:11.437Z,0
2018-11-02T00:37:51.872Z,0
2018-11-02T00:38:32.537Z,0
2018-11-02T00:39:12.909Z,0
2018-11-02T00:39:53.399Z,0
2018-11-02T00:40:33.873Z,0
2018-11-02T00:41:14.260Z,0
2018-11-02T00:41:55.506Z,0
2018-11-02T00:42:35.871Z,0
2018-11-02T00:43:16.390Z,0
2018-11-02T00:43:57.539Z,0
2018-11-02T00:44:38.027Z,0
2018-11-02T00:45:18.582Z,0
2018-11-02T00:45:58.896Z,0
2018-11-02T00:46:40.783Z,0
2018-11-02T00:47:21.577Z,0
2018-11-02T00:48:02.974Z,0
2018-11-02T00:48:43.245Z,0
2018-11-02T00:49:23.614Z,0
2018-11-02T00:50:04.309Z,0
2018-11-02T00:50:44.527Z,0
2018-11-02T00:51:29.010Z,0
2018-11-02T00:52:09.478Z,0
2018-11-02T00:52:49.927Z,0
2018-11-02T00:53:30.338Z,0
2018-11-02T00:54:10.786Z,0
2018-11-02T00:54:51.257Z,0
2018-11-02T00:55:31.909Z,0
2018-11-02T00:56:12.335Z,0
2018-11-02T00:56:52.807Z,0
2018-11-02T00:57:33.287Z,0
2018-11-02T00:58:13.693Z,0
2018-11-02T00:58:54.041Z,0
2018-11-02T00:59:34.542Z,0
2018-11-02T01:00:15.044Z,0
2018-11-02T01:00:55.448Z,0
2018-11-02T01:01:35.852Z,0
2018-11-02T01:02:16.778Z,0
2018-11-02T01:02:57.076Z,0
2018-11-02T01:03:37.418Z,0
2018-11-02T01:04:17.973Z,0
2018-11-02T01:04:59.556Z,0
2018-11-02T01:05:39.951Z,0
2018-11-02T01:06:21.671Z,0
2018-11-02T01:07:01.993Z,0
2018-11-02T01:07:42.442Z,0
2018-11-02T01:08:22.952Z,0
2018-11-02T01:09:03.810Z,0
2018-11-02T01:09:44.263Z,0
2018-11-02T01:10:24.646Z,0
2018-11-02T01:11:05.085Z,0
2018-11-02T01:11:45.441Z,0
2018-11-02T01:12:26.183Z,0
2018-11-02T01:13:06.623Z,0
2018-11-02T01:13:47.025Z,0
2018-11-02T01:14:27.441Z,0
2018-11-02T01:15:07.867Z,0
2018-11-02T01:15:48.251Z,0
2018-11-02T01:16:28.666Z,0
2018-11-02T01:17:09.105Z,0
2018-11-02T01:17:49.503Z,0
2018-11-02T01:18:29.916Z,0
2018-11-02T01:19:10.364Z,0
2018-11-02T01:19:50.710Z,0
2018-11-02T01:20:31.155Z,0
2018-11-02T01:21:11.543Z,0
2018-11-02T01:21:51.922Z,0
2018-11-02T01:22:32.387Z,0
2018-11-02T01:23:12.792Z,0
2018-11-02T01:23:53.388Z,0
2018-11-02T01:24:33.777Z,0
2018-11-02T01:25:14.097Z,0
2018-11-02T01:25:54.611Z,0
2018-11-02T01:26:35.036Z,0
2018-11-02T01:27:15.449Z,0
2018-11-02T01:27:55.856Z,0
2018-11-02T01:28:36.218Z,0
2018-11-02T01:29:16.650Z,0
2018-11-02T01:29:57.056Z,0
2018-11-02T01:30:40.374Z,0
2018-11-02T01:31:21.310Z,0
2018-11-02T01:32:01.367Z,0
2018-11-02T01:32:41.706Z,0
2018-11-02T01:33:22.248Z,0
2018-11-02T01:34:02.686Z,0
2018-11-02T01:34:43.066Z,0
2018-11-02T01:35:23.530Z,0
2018-11-02T01:36:03.960Z,0
2018-11-02T01:36:44.729Z,0
2018-11-02T01:37:25.403Z,0
2018-11-02T01:38:05.814Z,0
2018-11-02T01:38:46.231Z,0
2018-11-02T01:39:26.603Z,0
2018-11-02T01:40:07.009Z,0
2018-11-02T01:40:47.445Z,0
2018-11-02T01:41:27.876Z,0
2018-11-02T01:42:08.302Z,0
2018-11-02T01:42:49.492Z,0
2018-11-02T01:43:29.896Z,0
2018-11-02T01:44:10.350Z,0
2018-11-02T01:44:50.730Z,0
2018-11-02T01:45:31.231Z,0
2018-11-02T01:46:11.693Z,0
2018-11-02T01:46:52.005Z,0
2018-11-02T01:47:32.559Z,0
2018-11-02T01:48:12.860Z,0
2018-11-02T01:48:53.285Z,0
2018-11-02T01:49:34.228Z,0
2018-11-02T01:50:14.673Z,0
2018-11-02T01:50:55.353Z,0
2018-11-02T01:51:35.871Z,0
2018-11-02T01:52:16.196Z,0
2018-11-02T01:52:56.597Z,0
2018-11-02T01:53:36.973Z,0
2018-11-02T01:54:17.472Z,0
2018-11-02T01:54:57.897Z,0
2018-11-02T01:55:38.379Z,0
2018-11-02T01:56:18.811Z,0
2018-11-02T01:56:59.135Z,0
2018-11-02T01:57:39.586Z,0
2018-11-02T01:58:20.048Z,0
2018-11-02T01:59:00.401Z,0
2018-11-02T01:59:40.856Z,0
2018-11-02T02:00:21.895Z,0
2018-11-02T02:01:01.843Z,0
2018-11-02T02:01:42.298Z,0
2018-11-02T02:02:22.857Z,0
2018-11-02T02:03:03.473Z,0
2018-11-02T02:03:43.963Z,0
2018-11-02T02:04:24.323Z,0
2018-11-02T02:05:04.811Z,0
2018-11-02T02:05:45.249Z,0
2018-11-02T02:06:25.565Z,0
2018-11-02T02:07:06.005Z,0
2018-11-02T02:07:46.595Z,0
2018-11-02T02:08:26.882Z,0
2018-11-02T02:09:07.456Z,0
2018-11-02T02:09:47.823Z,0
2018-11-02T02:10:28.542Z,0
2018-11-02T02:11:08.918Z,0
2018-11-02T02:11:49.443Z,0
2018-11-02T02:12:29.681Z,0
2018-11-02T02:13:10.185Z,0
2018-11-02T02:13:50.660Z,0
2018-11-02T02:14:31.033Z,0
2018-11-02T02:15:11.657Z,0
2018-11-02T02:15:52.078Z,0
2018-11-02T02:16:32.531Z,0
2018-11-02T02:17:12.868Z,0
2018-11-02T02:17:53.300Z,0
2018-11-02T02:18:33.737Z,0
2018-11-02T02:19:14.164Z,0
2018-11-02T02:19:54.577Z,0
2018-11-02T02:20:35.062Z,0
2018-11-02T02:21:15.500Z,0
2018-11-02T02:21:55.883Z,0
2018-11-02T02:22:36.245Z,0
2018-11-02T02:23:16.683Z,0
2018-11-02T02:23:57.108Z,0
2018-11-02T02:24:37.504Z,0
2018-11-02T02:25:17.846Z,0
2018-11-02T02:25:58.287Z,0
2018-11-02T02:26:38.781Z,0
2018-11-02T02:27:19.674Z,0
2018-11-02T02:27:59.847Z,0
2018-11-02T02:28:40.204Z,0
2018-11-02T02:29:20.625Z,0
2018-11-02T02:30:00.959Z,0
2018-11-02T02:30:41.473Z,0
2018-11-02T02:31:21.865Z,0
2018-11-02T02:32:02.187Z,0
2018-11-02T02:32:42.625Z,0
2018-11-02T02:33:23.200Z,0
2018-11-02T02:34:03.625Z,0
2018-11-02T02:34:44.031Z,0
2018-11-02T02:35:24.571Z,0
2018-11-02T02:36:04.880Z,0
2018-11-02T02:36:45.342Z,0
2018-11-02T02:37:25.673Z,0
2018-11-02T02:38:06.436Z,0
2018-11-02T02:38:46.853Z,0
2018-11-02T02:39:27.440Z,0
2018-11-02T02:40:07.711Z,0
2018-11-02T02:40:48.107Z,0
2018-11-02T02:41:28.540Z,0
2018-11-02T02:42:09.066Z,0
2018-11-02T02:42:49.457Z,0
2018-11-02T02:43:29.859Z,0
2018-11-02T02:44:10.417Z,0
2018-11-02T02:44:50.750Z,0
2018-11-02T02:45:31.095Z,0
2018-11-02T02:46:11.596Z,0
2018-11-02T02:46:52.209Z,0
2018-11-02T02:47:32.714Z,0
2018-11-02T02:48:13.133Z,0
2018-11-02T02:48:53.740Z,0
2018-11-02T02:49:34.220Z,0
2018-11-02T02:50:14.706Z,0
2018-11-02T02:50:54.981Z,0
2018-11-02T02:51:35.393Z,0
2018-11-02T02:52:15.983Z,0
2018-11-02T02:52:56.248Z,0
2018-11-02T02:53:36.658Z,0
2018-11-02T02:54:17.130Z,0
2018-11-02T02:54:57.615Z,0
2018-11-02T02:55:38.003Z,0
2018-11-02T02:56:18.474Z,0
2018-11-02T02:56:59.048Z,0
2018-11-02T02:57:39.546Z,0
2018-11-02T02:58:20.635Z,0
2018-11-02T02:59:01.100Z,0
2018-11-02T02:59:41.575Z,0
2018-11-02T03:00:22.092Z,0
2018-11-02T03:01:02.445Z,0
2018-11-02T03:01:42.773Z,0
2018-11-02T03:02:23.235Z,0
2018-11-02T03:03:03.609Z,0
2018-11-02T03:03:44.264Z,0
2018-11-02T03:04:24.644Z,0
2018-11-02T03:05:05.197Z,0
2018-11-02T03:05:45.440Z,0
2018-11-02T03:06:25.938Z,0
2018-11-02T03:07:06.650Z,0
2018-11-02T03:07:47.022Z,0
2018-11-02T03:08:27.565Z,0
2018-11-02T03:09:08.062Z,0
2018-11-02T03:09:48.461Z,0
2018-11-02T03:10:28.944Z,0
2018-11-02T03:11:09.584Z,0
2018-11-02T03:11:49.645Z,0
2018-11-02T03:12:30.314Z,0
2018-11-02T03:13:10.903Z,0
2018-11-02T03:13:51.452Z,0
2018-11-02T03:14:31.949Z,0
2018-11-02T03:15:12.467Z,0
2018-11-02T03:15:52.952Z,0
2018-11-02T03:16:33.354Z,0
2018-11-02T03:17:13.847Z,0
2018-11-02T03:17:54.650Z,0
2018-11-02T03:18:35.175Z,0
2018-11-02T03:19:15.402Z,0
2018-11-02T03:19:56.416Z,0
2018-11-02T03:20:36.799Z,0
2018-11-02T03:21:17.325Z,0
2018-11-02T03:21:57.920Z,0
2018-11-02T03:22:38.476Z,0
2018-11-02T03:23:19.043Z,0
2018-11-02T03:23:59.299Z,0
2018-11-02T03:24:39.679Z,0
2018-11-02T03:25:20.310Z,0
2018-11-02T03:26:00.780Z,0
2018-11-02T03:26:41.360Z,0
2018-11-02T03:27:21.672Z,0
2018-11-02T03:28:02.088Z,0
2018-11-02T03:28:42.593Z,0
2018-11-02T03:29:23.046Z,0
2018-11-02T03:30:03.498Z,0
2018-11-02T03:30:43.906Z,0
2018-11-02T03:31:24.375Z,0
2018-11-02T03:32:04.778Z,0
2018-11-02T03:32:45.304Z,0
2018-11-02T03:33:25.625Z,0
2018-11-02T03:34:06.015Z,0
2018-11-02T03:34:46.390Z,0
2018-11-02T03:35:26.827Z,0
2018-11-02T03:36:07.240Z,0
2018-11-02T03:36:47.770Z,0
2018-11-02T03:37:28.151Z,0
2018-11-02T03:38:08.540Z,0
2018-11-02T03:38:48.980Z,0
2018-11-02T03:39:29.383Z,0
2018-11-02T03:40:09.860Z,0
2018-11-02T03:40:50.527Z,0
2018-11-02T03:41:30.803Z,0
2018-11-02T03:42:11.187Z,0
2018-11-02T03:42:51.581Z,0
2018-11-02T03:43:31.979Z,0
2018-11-02T03:44:12.472Z,0
2018-11-02T03:44:53.197Z,0
2018-11-02T03:45:33.620Z,0
2018-11-02T03:46:14.033Z,0
2018-11-02T03:46:54.482Z,0
2018-11-02T03:47:34.913Z,0
2018-11-02T03:48:15.554Z,0
2018-11-02T03:48:55.954Z,0
2018-11-02T03:49:36.274Z,0
2018-11-02T03:50:17.085Z,0
2018-11-02T03:50:57.472Z,0
2018-11-02T03:51:37.808Z,0
2018-11-02T03:52:18.552Z,0
2018-11-02T03:52:58.851Z,0
2018-11-02T03:53:39.323Z,0
2018-11-02T03:54:19.918Z,0
2018-11-02T03:55:00.347Z,0
2018-11-02T03:55:41.832Z,0
2018-11-02T03:56:21.094Z,0
2018-11-02T03:57:02.349Z,0
2018-11-02T03:57:42.594Z,0
2018-11-02T03:58:23.092Z,0
2018-11-02T03:59:04.485Z,0
2018-11-02T03:59:44.749Z,0
2018-11-02T04:00:25.428Z,0
2018-11-02T04:01:06.618Z,0
2018-11-02T04:01:47.595Z,0
2018-11-02T04:02:28.036Z,0
2018-11-02T04:03:08.943Z,0
2018-11-02T04:03:48.869Z,0
2018-11-02T04:04:29.578Z,0
2018-11-02T04:05:09.986Z,0
2018-11-02T04:05:50.347Z,0
2018-11-02T04:06:30.988Z,0
2018-11-02T04:07:11.340Z,0
2018-11-02T04:07:51.776Z,0
2018-11-02T04:08:32.240Z,0
2018-11-02T04:09:12.608Z,0
2018-11-02T04:09:53.176Z,0
2018-11-02T04:10:33.527Z,0
2018-11-02T04:11:14.388Z,0
2018-11-02T04:11:54.475Z,0
2018-11-02T04:12:35.864Z,0
2018-11-02T04:13:16.403Z,0
2018-11-02T04:13:56.842Z,0
2018-11-02T04:14:37.367Z,0
2018-11-02T04:15:17.764Z,0
2018-11-02T04:15:58.894Z,0
2018-11-02T04:16:39.183Z,0
2018-11-02T04:17:19.553Z,0
2018-11-02T04:17:59.990Z,0
2018-11-02T04:18:40.460Z,0
2018-11-02T04:19:20.857Z,0
2018-11-02T04:20:01.532Z,0
2018-11-02T04:20:41.779Z,0
2018-11-02T04:21:22.190Z,0
2018-11-02T04:22:02.584Z,0
2018-11-02T04:22:43.001Z,0
2018-11-02T04:23:26.792Z,0
2018-11-02T04:24:07.728Z,0
2018-11-02T04:24:48.453Z,0
2018-11-02T04:25:28.827Z,0
2018-11-02T04:26:09.266Z,0
2018-11-02T04:26:49.620Z,0
2018-11-02T04:27:30.463Z,0
2018-11-02T05:06:58.610Z,0
2018-11-02T05:07:45.826Z,0
2018-11-02T05:08:27.460Z,0
2018-11-02T05:09:07.955Z,0
2018-11-02T05:09:48.921Z,0
2018-11-02T05:10:29.399Z,0
2018-11-02T05:11:10.492Z,0
2018-11-02T05:11:50.485Z,0
2018-11-02T05:12:31.104Z,0
2018-11-02T05:13:11.589Z,0
2018-11-02T05:13:52.281Z,0
2018-11-02T05:14:32.606Z,0
2018-11-02T05:15:13.012Z,0
2018-11-02T05:15:53.611Z,0
2018-11-02T05:16:34.116Z,0
2018-11-02T05:17:14.817Z,0
2018-11-02T05:17:55.423Z,0
2018-11-02T05:18:35.792Z,0
2018-11-02T05:19:16.177Z,0
2018-11-02T05:19:56.862Z,0
2018-11-02T05:20:37.183Z,0
2018-11-02T05:21:17.612Z,0
2018-11-02T05:21:58.134Z,0
2018-11-02T05:22:38.411Z,0
2018-11-02T05:23:18.805Z,0
2018-11-02T05:23:59.231Z,0
2018-11-02T05:24:39.713Z,0
2018-11-02T05:25:20.835Z,0
2018-11-02T05:26:01.043Z,0
2018-11-02T05:26:41.485Z,0
2018-11-02T05:27:22.054Z,0
2018-11-02T05:28:02.418Z,0
2018-11-02T05:28:42.834Z,0
2018-11-02T05:29:23.215Z,0
2018-11-02T05:30:03.629Z,0
2018-11-02T05:30:44.091Z,0
2018-11-02T05:36:16.636Z,0
2018-11-02T05:38:55.061Z,0
2018-11-02T05:39:35.962Z,0
2018-11-02T05:40:16.604Z,0
2018-11-02T05:40:56.814Z,0
2018-11-02T05:41:37.283Z,0
2018-11-02T05:42:17.685Z,0
2018-11-02T05:42:58.111Z,0
2018-11-02T05:43:38.416Z,0
2018-11-02T05:44:18.786Z,0
2018-11-02T05:44:59.232Z,0
2018-11-02T05:45:39.852Z,0
2018-11-02T05:46:20.438Z,0
2018-11-02T05:47:00.591Z,0
2018-11-02T05:47:41.686Z,0
2018-11-02T05:48:21.456Z,0
2018-11-02T05:49:02.131Z,0
2018-11-02T05:49:42.586Z,0
2018-11-02T05:50:22.858Z,0
2018-11-02T05:51:03.278Z,0
2018-11-02T05:51:43.963Z,0
2018-11-02T05:52:25.024Z,0
2018-11-02T05:53:05.457Z,0
2018-11-02T05:53:45.838Z,0
2018-11-02T05:54:26.363Z,0
2018-11-02T05:55:06.812Z,0
2018-11-02T05:55:47.323Z,0
2018-11-02T05:56:27.403Z,0
2018-11-02T05:57:08.061Z,4
2018-11-02T05:57:48.504Z,4
2018-11-02T05:58:28.901Z,0
2018-11-02T05:59:09.334Z,0
2018-11-02T05:59:49.719Z,4
2018-11-02T06:00:30.281Z,4
2018-11-02T06:01:10.681Z,4
2018-11-02T06:01:51.073Z,4
2018-11-02T06:02:31.548Z,4
2018-11-02T06:03:11.887Z,4
2018-11-02T06:03:52.354Z,4
2018-11-02T06:04:32.646Z,8
2018-11-02T06:05:13.101Z,8
2018-11-02T06:05:53.507Z,8
2018-11-02T06:06:33.864Z,8
2018-11-02T06:07:14.412Z,8
2018-11-02T06:07:54.958Z,8
2018-11-02T06:08:35.244Z,12
2018-11-02T06:09:15.620Z,16
2018-11-02T06:09:56.193Z,16
2018-11-02T06:10:36.674Z,16
2018-11-02T06:11:17.042Z,16
2018-11-02T06:11:57.729Z,20
2018-11-02T06:12:38.077Z,20
2018-11-02T06:13:18.573Z,24
2018-11-02T06:13:58.954Z,24
2018-11-02T06:14:39.321Z,28
2018-11-02T06:15:19.721Z,28
2018-11-02T06:16:00.473Z,32
2018-11-02T06:16:40.571Z,36
2018-11-02T06:17:20.917Z,36
2018-11-02T06:18:01.331Z,40
2018-11-02T06:18:41.778Z,40
2018-11-02T06:19:22.165Z,48
2018-11-02T06:20:02.703Z,48
2018-11-02T06:20:43.356Z,52
2018-11-02T06:21:23.676Z,56
2018-11-02T06:22:04.527Z,60
2018-11-02T06:22:44.955Z,64
2018-11-02T06:23:25.430Z,68
2018-11-02T06:24:05.766Z,72
2018-11-02T06:24:46.177Z,80
2018-11-02T06:25:26.626Z,84
2018-11-02T06:26:07.024Z,92
2018-11-02T06:26:47.480Z,100
2018-11-02T06:27:27.873Z,104
2018-11-02T06:28:08.399Z,112
2018-11-02T06:28:48.668Z,120
2018-11-02T06:29:29.058Z,124
2018-11-02T06:30:09.949Z,132
2018-11-02T06:30:50.291Z,132
2018-11-02T06:31:30.773Z,140
2018-11-02T06:32:11.064Z,148
2018-11-02T06:32:51.571Z,156
2018-11-02T06:33:31.923Z,164
2018-11-02T06:34:12.308Z,172
2018-11-02T06:34:52.745Z,180
2018-11-02T06:35:33.132Z,192
2018-11-02T06:36:13.514Z,200
2018-11-02T06:36:54.049Z,212
2018-11-02T06:37:34.411Z,228
2018-11-02T06:38:14.843Z,236
2018-11-02T06:38:55.407Z,244
2018-11-02T06:39:35.743Z,260
2018-11-02T06:40:16.038Z,268
2018-11-02T06:40:56.481Z,272
2018-11-02T06:41:36.839Z,276
2018-11-02T06:42:17.327Z,284
2018-11-02T06:42:57.631Z,292
2018-11-02T06:43:38.187Z,300
2018-11-02T06:44:18.562Z,308
2018-11-02T06:44:59.092Z,320
2018-11-02T06:45:39.369Z,336
2018-11-02T06:46:20.052Z,360
2018-11-02T06:47:00.622Z,384
2018-11-02T06:47:41.104Z,392
2018-11-02T06:48:21.469Z,408
2018-11-02T06:49:01.886Z,420
2018-11-02T06:49:42.320Z,428
2018-11-02T06:50:22.739Z,424
2018-11-02T06:51:03.336Z,436
2018-11-02T06:51:43.665Z,452
2018-11-02T06:52:24.148Z,460
2018-11-02T06:53:04.420Z,472
2018-11-02T06:53:44.878Z,484
2018-11-02T06:54:25.272Z,492
2018-11-02T06:55:05.691Z,496
2018-11-02T06:55:46.038Z,480
2018-11-02T06:56:26.460Z,468
2018-11-02T06:57:06.855Z,468
2018-11-02T06:57:47.251Z,476
2018-11-02T06:58:27.646Z,524
2018-11-02T06:59:08.046Z,556
2018-11-02T06:59:48.754Z,520
2018-11-02T07:00:29.023Z,528
2018-11-02T07:02:48.615Z,536
2018-11-02T07:03:28.746Z,532
2018-11-02T07:04:09.423Z,532
2018-11-02T07:04:49.721Z,540
2018-11-02T07:05:30.101Z,540
2018-11-02T07:06:10.515Z,552
2018-11-02T07:06:50.872Z,600
2018-11-02T07:07:31.473Z,616
2018-11-02T07:08:11.955Z,588
2018-11-02T07:08:52.105Z,588
2018-11-02T07:09:32.522Z,584
2018-11-02T07:10:12.979Z,576
2018-11-02T07:10:53.357Z,572
2018-11-02T07:11:33.826Z,584
2018-11-02T07:12:14.180Z,560
2018-11-02T07:12:54.604Z,556
2018-11-02T07:13:35.023Z,560
2018-11-02T07:14:15.398Z,552
2018-11-02T07:14:55.928Z,544
2018-11-02T07:15:36.353Z,540
2018-11-02T07:16:16.735Z,544
2018-11-02T07:16:57.148Z,540
2018-11-02T07:17:37.498Z,532
2018-11-02T07:18:17.937Z,516
2018-11-02T07:18:58.334Z,496
2018-11-02T07:19:38.732Z,488
2018-11-02T07:20:19.160Z,484
2018-11-02T07:20:59.920Z,484
2018-11-02T07:21:40.372Z,484
2018-11-02T07:22:20.740Z,488
2018-11-02T07:23:01.110Z,488
2018-11-02T07:23:41.538Z,492
2018-11-02T07:24:22.224Z,504
2018-11-02T07:25:02.696Z,500
2018-11-02T07:25:43.003Z,504
2018-11-02T07:26:23.413Z,504
2018-11-02T07:27:03.925Z,512
2018-11-02T07:27:44.188Z,524
2018-11-02T07:28:24.748Z,520
2018-11-02T07:29:05.096Z,504
2018-11-02T07:29:45.966Z,496
2018-11-02T07:30:26.378Z,488
2018-11-02T07:31:06.780Z,492
2018-11-02T07:31:47.181Z,484
2018-11-02T07:32:27.911Z,480
2018-11-02T07:33:08.349Z,472
2018-11-02T07:33:48.869Z,472
2018-11-02T07:34:29.844Z,472
2018-11-02T07:35:10.362Z,476
2018-11-02T07:35:50.720Z,480
2018-11-02T07:36:31.211Z,488
2018-11-02T07:37:11.655Z,484
2018-11-02T07:37:52.391Z,488
2018-11-02T07:38:32.551Z,500
2018-11-02T07:39:12.965Z,520
2018-11-02T07:39:53.840Z,560
2018-11-02T07:40:34.691Z,612
2018-11-02T07:41:15.097Z,656
2018-11-02T07:41:55.817Z,688
2018-11-02T07:42:36.172Z,712
2018-11-02T07:43:16.609Z,736
2018-11-02T07:43:57.069Z,756
2018-11-02T07:44:37.447Z,768
2018-11-02T07:45:18.007Z,776
2018-11-02T07:45:58.398Z,796
2018-11-02T07:46:38.694Z,808
2018-11-02T07:47:19.535Z,808
2018-11-02T07:47:59.968Z,804
2018-11-02T07:48:40.779Z,796
2018-11-02T07:49:21.286Z,776
2018-11-02T07:50:02.595Z,756
2018-11-02T07:50:42.930Z,740
2018-11-02T07:51:23.440Z,724
2018-11-02T07:52:03.814Z,712
2018-11-02T07:52:44.295Z,700
2018-11-02T07:53:24.637Z,692
2018-11-02T07:54:05.362Z,696
2018-11-02T07:54:46.049Z,700
2018-11-02T07:55:26.512Z,716
2018-11-02T07:56:07.122Z,724
2018-11-02T07:56:47.800Z,732
2018-11-02T07:57:28.049Z,744
2018-11-02T07:58:08.847Z,760
2018-11-02T07:58:49.364Z,772
2018-11-02T07:59:29.754Z,772
2018-11-02T08:00:10.182Z,760
2018-11-02T08:06:26.471Z,812
2018-11-02T08:07:12.200Z,824
2018-11-02T08:07:52.731Z,844
2018-11-02T08:08:33.319Z,876
2018-11-02T08:09:14.784Z,904
2018-11-02T08:09:59.104Z,948
2018-11-02T08:10:40.287Z,980
2018-11-02T08:11:21.107Z,1024
2018-11-02T08:12:01.532Z,1080
2018-11-02T08:12:45.181Z,1056
2018-11-02T08:13:25.510Z,1368
2018-11-02T08:14:06.013Z,1360
2018-11-02T08:14:48.393Z,1480
2018-11-02T08:15:28.420Z,1528
2018-11-02T08:16:10.100Z,1608
2018-11-02T08:16:50.834Z,1652
2018-11-02T08:17:32.576Z,1696
2018-11-02T08:18:22.517Z,1712
2018-11-02T08:19:02.855Z,1764
2018-11-02T08:19:44.019Z,1784
2018-11-02T08:20:24.468Z,1808
2018-11-02T08:21:04.943Z,1832
2018-11-02T08:21:46.546Z,1912
2018-11-02T08:24:19.332Z,2060
2018-11-02T08:24:59.808Z,2080
2018-11-02T08:25:40.335Z,2120
2018-11-02T08:26:20.759Z,2168
2018-11-02T08:27:01.169Z,2184
2018-11-02T08:27:42.351Z,2192
2018-11-02T08:28:22.793Z,2184
2018-11-02T08:29:04.574Z,2244
2018-11-02T08:29:45.025Z,2168
2018-11-02T08:30:25.522Z,2228
2018-11-02T08:31:05.882Z,2272
2018-11-02T08:31:46.473Z,2288
2018-11-02T08:32:26.941Z,2280
2018-11-02T08:33:08.533Z,2296
2018-11-02T08:33:49.235Z,2284
2018-11-02T08:34:29.481Z,2200
2018-11-02T08:35:09.868Z,2100
2018-11-02T08:35:50.515Z,1948
2018-11-02T08:36:32.024Z,1892
2018-11-02T08:37:12.422Z,1904
2018-11-02T08:37:52.850Z,1984
2018-11-02T08:38:33.274Z,1864
2018-11-02T08:39:13.683Z,1820
2018-11-02T08:39:54.354Z,1828
2018-11-02T08:42:23.601Z,1740
2018-11-02T08:43:04.081Z,1660
2018-11-02T08:43:44.350Z,1640
2018-11-02T08:44:24.727Z,1448
2018-11-02T08:45:05.153Z,1512
2018-11-02T08:45:45.612Z,1572
2018-11-02T08:46:26.046Z,1604
2018-11-02T08:52:35.790Z,1480
2018-11-02T08:53:16.212Z,1544
2018-11-02T08:53:56.615Z,1500
2018-11-02T08:54:37.113Z,1480
2018-11-02T08:55:18.290Z,1536
2018-11-02T08:56:00.061Z,1592
2018-11-02T08:56:41.084Z,1644
2018-11-02T08:57:21.720Z,1628
2018-11-02T08:58:02.276Z,1556
2018-11-02T08:58:42.776Z,1596
2018-11-02T08:59:23.189Z,1492
2018-11-02T09:00:03.568Z,1476
2018-11-02T09:00:44.037Z,1452
2018-11-02T09:01:24.320Z,1464
2018-11-02T09:02:08.192Z,1492
2018-11-02T09:02:48.619Z,1512
2018-11-02T09:03:29.322Z,1540
2018-11-02T09:04:09.736Z,1572
2018-11-02T09:04:50.192Z,1648
2018-11-02T09:05:30.813Z,1696
2018-11-02T09:06:11.186Z,1700
2018-11-02T09:06:52.295Z,1700
2018-11-02T09:07:32.710Z,1672
2018-11-02T09:08:13.358Z,1612
2018-11-02T09:08:56.864Z,1604
2018-11-02T09:09:37.271Z,1620
2018-11-02T09:10:17.693Z,1676
2018-11-02T09:10:59.375Z,1728
2018-11-02T09:11:40.382Z,1796
2018-11-02T09:12:20.837Z,1860
2018-11-02T09:13:01.240Z,1888
2018-11-02T09:13:41.826Z,1920
2018-11-02T09:14:22.239Z,1924
2018-11-02T09:15:02.679Z,1912
2018-11-02T09:15:43.116Z,1880
2018-11-02T09:16:23.667Z,1852
2018-11-02T09:17:04.029Z,1836
2018-11-02T09:17:44.415Z,1828
2018-11-02T09:18:25.000Z,1796
2018-11-02T09:19:05.487Z,1748
2018-11-02T09:19:45.959Z,1684
2018-11-02T09:20:26.427Z,1628
2018-11-02T09:21:07.766Z,1588
2018-11-02T09:21:49.842Z,1532
2018-11-02T09:22:31.014Z,1456
2018-11-02T09:23:11.469Z,1408
2018-11-02T09:23:51.888Z,1380
2018-11-02T09:24:33.264Z,1360
2018-11-02T09:25:13.717Z,1344
2018-11-02T09:25:54.222Z,1320
2018-11-02T09:26:34.787Z,1300
2018-11-02T09:27:15.145Z,1296
2018-11-02T09:27:56.701Z,1308
2018-11-02T09:28:37.151Z,1316
2018-11-02T09:29:17.573Z,1320
2018-11-02T09:29:58.040Z,1320
2018-11-02T09:30:38.496Z,1324
2018-11-02T09:31:19.245Z,1348
2018-11-02T09:31:59.706Z,1372
2018-11-02T09:32:40.177Z,1404
2018-11-02T09:33:20.580Z,1424
2018-11-02T09:34:01.080Z,1436
2018-11-02T09:34:41.714Z,1468
2018-11-02T09:35:22.085Z,1488
2018-11-02T09:36:02.364Z,1508
2018-11-02T09:36:42.801Z,1500
2018-11-02T09:37:23.199Z,1508
2018-11-02T09:38:03.653Z,1484
2018-11-02T09:38:44.087Z,1452
2018-11-02T09:39:24.825Z,1440
2018-11-02T09:40:07.215Z,1432
2018-11-02T09:40:47.786Z,1388
2018-11-02T09:41:28.197Z,1324
2018-11-02T09:42:08.704Z,1272
2018-11-02T09:42:49.871Z,1216
2018-11-02T09:43:30.136Z,1156
2018-11-02T09:44:10.570Z,1100
2018-11-02T09:44:50.984Z,1048
2018-11-02T09:45:31.399Z,1004
2018-11-02T09:46:11.918Z,964
2018-11-02T09:46:53.614Z,924
2018-11-02T09:47:33.969Z,892
2018-11-02T09:48:14.436Z,860
2018-11-02T09:48:54.788Z,840
2018-11-02T09:49:35.222Z,804
2018-11-02T09:50:15.791Z,772
2018-11-02T09:50:56.078Z,756
2018-11-02T09:51:36.890Z,764
2018-11-02T09:52:17.263Z,792
2018-11-02T09:52:57.636Z,844
2018-11-02T09:53:38.394Z,920
2018-11-02T09:54:19.197Z,1012
2018-11-02T09:55:00.763Z,1080
2018-11-02T09:55:41.235Z,1124
2018-11-02T09:56:22.044Z,1160
2018-11-02T09:57:02.488Z,1188
2018-11-02T09:57:43.016Z,1216
2018-11-02T09:58:25.745Z,1252
2018-11-02T09:59:05.203Z,1276
2018-11-02T09:59:45.788Z,1296
2018-11-02T10:00:26.434Z,1300
2018-11-02T10:01:06.808Z,1316
2018-11-02T10:01:47.305Z,1352
2018-11-02T10:02:27.743Z,1404
2018-11-02T10:03:08.624Z,1452
2018-11-02T10:03:49.143Z,1516
2018-11-02T10:04:29.560Z,1556
2018-11-02T10:05:10.070Z,1564
2018-11-02T10:05:50.661Z,1552
2018-11-02T10:06:31.184Z,1512
2018-11-02T10:07:11.705Z,1440
2018-11-02T10:07:52.080Z,1368
2018-11-02T10:08:32.807Z,1356
2018-11-02T10:09:13.746Z,1356
2018-11-02T10:09:54.046Z,1332
2018-11-02T10:10:34.678Z,1324
2018-11-02T10:11:15.348Z,1304
2018-11-02T10:11:57.887Z,1324
2018-11-02T10:12:38.353Z,1328
2018-11-02T10:13:19.673Z,1308
2018-11-02T10:13:59.874Z,1268
2018-11-02T10:14:41.207Z,1252
2018-11-02T10:15:21.692Z,1248
2018-11-02T10:16:02.407Z,1236
2018-11-02T10:16:43.513Z,1232
2018-11-02T10:17:24.240Z,1220
2018-11-02T10:18:04.864Z,1208
2018-11-02T10:18:46.281Z,1196
2018-11-02T10:19:27.187Z,1188
2018-11-02T10:20:07.238Z,1176
2018-11-02T10:20:47.456Z,1160
2018-11-02T10:21:29.194Z,1168
2018-11-02T10:22:10.014Z,1168
2018-11-02T10:22:50.542Z,1152
2018-11-02T10:23:31.665Z,1120
2018-11-02T10:24:13.750Z,1084
2018-11-02T10:24:54.970Z,1064
2018-11-02T10:25:36.010Z,1048
2018-11-02T10:26:17.427Z,1032
2018-11-02T10:26:58.032Z,1012
2018-11-02T10:27:39.720Z,984
2018-11-02T10:28:19.653Z,968
2018-11-02T10:29:01.177Z,960
2018-11-02T11:07:02.839Z,960
2018-11-02T11:07:43.236Z,940
2018-11-02T11:08:23.720Z,944
2018-11-02T11:09:04.611Z,1000
2018-11-02T11:09:46.103Z,1048
2018-11-02T11:10:26.563Z,1044
2018-11-02T11:11:07.395Z,1024
2018-11-02T11:11:48.095Z,1016
2018-11-02T11:12:28.520Z,1008
2018-11-02T11:13:09.194Z,1032
2018-11-02T11:13:49.920Z,1108
2018-11-02T11:14:30.419Z,1176
2018-11-02T11:15:11.138Z,1220
2018-11-02T11:15:52.594Z,1284
2018-11-02T11:16:33.107Z,1284